Time;durP1;ratioP1;P1;durP2;ratioP2;P2;SDS_P1;SDS_P2;PMS_P1;PMS_P2;Temp;Humidity;BMP_temperature;BMP_pressure;BME280_temperature;BME280_humidity;BME280_pressure;Samples;Min_cycle;Max_cycle;Signal;HPM_P1;HPM_P2
2022/10/31 00:01:38;;;;;;;;;;;26.70;75.20;;;;;;5103392;28;19924;-68
2022/10/31 00:04:05;;;;;;;;;;;26.80;75.00;;;;;;5106778;28;20326;-66
2022/10/31 00:06:31;;;;;;;;;;;26.70;75.40;;;;;;5105715;28;19908;-66
2022/10/31 00:09:03;;;;;;;;;;;26.80;75.60;;;;;;5106246;28;19919;-67
2022/10/31 00:11:29;;;;;;;;;;;26.90;75.50;;;;;;5105683;28;20570;-68
2022/10/31 00:13:57;;;;;;;;;;;27.00;74.90;;;;;;5088165;28;19907;-66
2022/10/31 00:16:25;;;;;;;;;;;27.10;75.60;;;;;;5105563;28;20186;-66
2022/10/31 00:18:58;;;;;;;;;;;27.30;75.00;;;;;;5106033;28;19908;-69
2022/10/31 00:21:25;;;;;;;;;;;27.40;74.10;;;;;;5105687;28;19912;-67
2022/10/31 00:23:52;;;;;;;;;;;27.30;74.50;;;;;;5106192;28;19908;-65
2022/10/31 00:26:19;;;;;;;;;;;27.30;74.90;;;;;;5105946;28;19912;-67
2022/10/31 00:28:45;;;;;;;;;;;27.10;74.80;;;;;;5105254;28;19915;-67
2022/10/31 00:31:13;;;;;;;;;;;26.90;75.60;;;;;;5106003;28;19968;-66
2022/10/31 00:33:40;;;;;;;;;;;26.80;75.60;;;;;;5087232;28;19918;-67
2022/10/31 00:36:07;;;;;;;;;;;26.80;76.30;;;;;;5106191;28;20451;-66
2022/10/31 00:38:34;;;;;;;;;;;26.80;75.90;;;;;;5105025;28;19907;-66
2022/10/31 00:41:01;;;;;;;;;;;26.90;76.00;;;;;;5105646;28;20366;-67
2022/10/31 00:43:27;;;;;;;;;;;27.20;76.00;;;;;;5105469;28;19943;-67
2022/10/31 00:45:54;;;;;;;;;;;27.60;75.10;;;;;;5105255;28;19919;-67
2022/10/31 00:48:21;;;;;;;;;;;27.80;74.00;;;;;;5105708;28;20374;-69
2022/10/31 00:50:47;;;;;;;;;;;28.10;74.30;;;;;;5104811;28;19907;-68
2022/10/31 00:53:14;;;;;;;;;;;28.30;73.30;;;;;;5105752;28;19908;-69
2022/10/31 00:55:41;;;;;;;;;;;28.40;73.00;;;;;;5105203;28;19908;-67
2022/10/31 00:58:07;;;;;;;;;;;28.40;73.50;;;;;;5105572;28;19915;-66
2022/10/31 01:00:34;;;;;;;;;;;28.50;73.50;;;;;;5104825;28;19914;-66
2022/10/31 01:03:00;;;;;;;;;;;28.50;73.00;;;;;;5105374;28;19920;-67
2022/10/31 01:05:27;;;;;;;;;;;28.50;73.40;;;;;;5105641;28;19918;-69
2022/10/31 01:07:54;;;;;;;;;;;28.70;73.00;;;;;;5104641;28;20409;-67
2022/10/31 01:10:20;;;;;;;;;;;28.80;72.80;;;;;;5105059;28;19919;-68
2022/10/31 01:12:48;;;;;;;;;;;29.00;72.30;;;;;;5104867;28;20279;-67
2022/10/31 01:15:16;;;;;;;;;;;29.10;72.60;;;;;;5104920;28;19955;-68
2022/10/31 01:17:43;;;;;;;;;;;29.40;73.20;;;;;;5104669;28;19912;-67
2022/10/31 01:20:10;;;;;;;;;;;29.70;72.40;;;;;;5104870;28;19911;-67
2022/10/31 01:22:37;;;;;;;;;;;29.90;72.10;;;;;;5104232;28;19931;-68
2022/10/31 01:25:04;;;;;;;;;;;30.00;71.50;;;;;;5105080;28;19908;-67
2022/10/31 01:27:31;;;;;;;;;;;29.80;71.50;;;;;;5105851;28;20469;-67
2022/10/31 01:29:57;;;;;;;;;;;29.70;72.00;;;;;;5104534;28;19915;-67
2022/10/31 01:32:24;;;;;;;;;;;29.60;72.30;;;;;;5104998;28;19928;-67
2022/10/31 01:34:51;;;;;;;;;;;29.40;73.00;;;;;;5103563;28;19907;-67
2022/10/31 01:37:17;;;;;;;;;;;29.30;73.40;;;;;;5105202;28;19908;-68
2022/10/31 01:39:44;;;;;;;;;;;29.10;73.40;;;;;;5103660;28;20047;-67
2022/10/31 01:42:16;;;;;;;;;;;29.00;73.80;;;;;;5104113;28;19911;-67
2022/10/31 01:44:42;;;;;;;;;;;28.90;73.90;;;;;;5103417;28;19980;-67
2022/10/31 01:47:14;;;;;;;;;;;29.00;74.30;;;;;;5104458;28;19932;-67
2022/10/31 01:49:44;;;;;;;;;;;29.10;74.30;;;;;;5103799;28;20257;-69
2022/10/31 01:52:24;;;;;;;;;;;29.20;74.10;;;;;;5104015;28;19930;-68
2022/10/31 01:55:00;;;;;;;;;;;29.30;74.60;;;;;;5103623;28;20350;-68
2022/10/31 01:57:27;;;;;;;;;;;29.20;74.80;;;;;;5085920;28;19908;-68
2022/10/31 01:59:57;;;;;;;;;;;29.30;75.00;;;;;;5103619;28;20007;-67
2022/10/31 02:02:24;;;;;;;;;;;29.30;75.70;;;;;;5104438;28;19908;-68
2022/10/31 02:04:50;;;;;;;;;;;29.30;75.20;;;;;;5102979;28;19919;-69
2022/10/31 02:07:20;;;;;;;;;;;29.50;75.10;;;;;;5104064;28;19914;-67
2022/10/31 02:09:48;;;;;;;;;;;29.60;75.00;;;;;;5103291;28;19961;-67
2022/10/31 02:12:18;;;;;;;;;;;29.70;73.00;;;;;;5103165;28;20447;-67
2022/10/31 02:14:44;;;;;;;;;;;29.60;70.80;;;;;;5103470;28;19915;-68
2022/10/31 02:17:11;;;;;;;;;;;29.30;70.00;;;;;;5103536;28;19908;-68
2022/10/31 02:19:38;;;;;;;;;;;29.00;69.60;;;;;;5104013;28;19907;-67
2022/10/31 02:22:22;;;;;;;;;;;28.60;71.70;;;;;;5103196;28;19995;-66
2022/10/31 02:25:07;;;;;;;;;;;28.30;72.90;;;;;;5102306;28;19985;-67
2022/10/31 02:27:46;;;;;;;;;;;28.00;74.10;;;;;;5103332;28;19960;-68
2022/10/31 02:30:23;;;;;;;;;;;27.70;75.40;;;;;;5103831;28;19916;-67
2022/10/31 02:33:13;;;;;;;;;;;27.50;76.60;;;;;;5103681;28;20355;-68
2022/10/31 02:35:42;;;;;;;;;;;27.40;78.10;;;;;;5090521;28;19976;-67
2022/10/31 02:38:11;;;;;;;;;;;27.30;79.30;;;;;;5102570;28;19915;-67
2022/10/31 02:40:47;;;;;;;;;;;27.30;80.90;;;;;;5103766;28;20072;-68
2022/10/31 02:43:34;;;;;;;;;;;27.20;80.30;;;;;;5103446;28;19908;-68
2022/10/31 02:46:13;;;;;;;;;;;27.10;80.90;;;;;;5103689;28;20385;-68
2022/10/31 02:48:42;;;;;;;;;;;26.90;80.40;;;;;;5103422;28;20623;-67
2022/10/31 02:51:10;;;;;;;;;;;26.80;81.80;;;;;;5102614;28;20594;-69
2022/10/31 02:53:37;;;;;;;;;;;26.80;82.00;;;;;;5103210;28;19907;-68
2022/10/31 02:56:12;;;;;;;;;;;26.70;82.20;;;;;;5103097;28;19961;-68
2022/10/31 02:58:40;;;;;;;;;;;26.70;83.20;;;;;;5103237;28;19916;-68
2022/10/31 03:01:19;;;;;;;;;;;26.70;83.50;;;;;;5102772;28;19911;-68
2022/10/31 03:04:10;;;;;;;;;;;26.70;84.40;;;;;;5103697;28;19930;-66
2022/10/31 03:06:37;;;;;;;;;;;26.60;85.40;;;;;;5103357;28;19912;-68
2022/10/31 03:09:12;;;;;;;;;;;26.50;86.30;;;;;;5103220;28;19923;-67
2022/10/31 03:11:44;;;;;;;;;;;26.50;87.50;;;;;;5103268;28;19915;-67
2022/10/31 03:14:16;;;;;;;;;;;26.40;87.30;;;;;;5102164;28;19903;-68
2022/10/31 03:16:42;;;;;;;;;;;26.30;88.50;;;;;;5102998;28;19968;-67
2022/10/31 03:19:11;;;;;;;;;;;26.30;89.20;;;;;;5102895;28;19914;-66
2022/10/31 03:21:45;;;;;;;;;;;26.20;89.50;;;;;;5103261;28;19914;-68
2022/10/31 03:24:12;;;;;;;;;;;26.10;90.10;;;;;;5102189;28;19908;-68
2022/10/31 03:26:43;;;;;;;;;;;26.00;89.90;;;;;;5102755;28;20320;-67
2022/10/31 03:29:12;;;;;;;;;;;26.10;90.30;;;;;;5102312;28;19923;-68
2022/10/31 03:31:45;;;;;;;;;;;26.10;89.90;;;;;;5103355;28;19914;-67
2022/10/31 03:34:13;;;;;;;;;;;26.20;89.90;;;;;;5102162;28;20394;-68
2022/10/31 03:36:40;;;;;;;;;;;26.30;90.20;;;;;;5104000;28;19918;-68
2022/10/31 03:39:09;;;;;;;;;;;26.30;90.30;;;;;;5106923;28;19914;-67
2022/10/31 03:41:38;;;;;;;;;;;26.30;90.20;;;;;;5106741;28;19961;-66
2022/10/31 03:44:08;;;;;;;;;;;26.30;90.80;;;;;;5107041;28;20360;-66
2022/10/31 03:46:35;;;;;;;;;;;26.30;90.50;;;;;;5106280;28;19916;-66
2022/10/31 03:49:02;;;;;;;;;;;26.20;90.20;;;;;;5106518;28;19916;-65
2022/10/31 03:51:44;;;;;;;;;;;26.20;90.20;;;;;;5106162;28;19912;-68
2022/10/31 03:54:17;;;;;;;;;;;26.30;90.40;;;;;;5106899;28;20288;-67
2022/10/31 03:56:52;;;;;;;;;;;26.50;90.60;;;;;;5106903;28;19908;-66
2022/10/31 03:59:27;;;;;;;;;;;26.90;89.00;;;;;;5105680;28;19908;-66
2022/10/31 04:01:56;;;;;;;;;;;27.30;88.20;;;;;;5106576;28;19968;-67
2022/10/31 04:04:23;;;;;;;;;;;27.70;88.00;;;;;;5106043;28;19920;-66
2022/10/31 04:06:50;;;;;;;;;;;27.90;86.50;;;;;;5106449;28;19908;-68
2022/10/31 04:09:18;;;;;;;;;;;28.00;85.70;;;;;;5106287;28;19947;-67
2022/10/31 04:11:49;;;;;;;;;;;28.00;85.50;;;;;;5106451;28;20272;-67
2022/10/31 04:14:16;;;;;;;;;;;28.40;84.70;;;;;;5105623;28;19907;-67
2022/10/31 04:16:44;;;;;;;;;;;29.20;82.00;;;;;;5106050;28;19908;-68
2022/10/31 04:19:13;;;;;;;;;;;29.70;81.20;;;;;;5106110;28;19929;-67
2022/10/31 04:21:43;;;;;;;;;;;29.60;81.00;;;;;;5103935;28;20263;-65
2022/10/31 04:24:09;;;;;;;;;;;29.20;81.00;;;;;;5105205;28;19908;-67
2022/10/31 04:26:36;;;;;;;;;;;28.70;81.10;;;;;;5103884;28;20015;-67
2022/10/31 04:29:03;;;;;;;;;;;28.30;82.80;;;;;;5105921;28;20055;-67
2022/10/31 04:31:30;;;;;;;;;;;27.90;82.90;;;;;;5105365;28;19908;-67
2022/10/31 04:33:56;;;;;;;;;;;27.70;83.20;;;;;;5106000;28;19916;-67
2022/10/31 04:36:23;;;;;;;;;;;27.50;83.90;;;;;;5104933;28;19953;-67
2022/10/31 04:38:49;;;;;;;;;;;27.50;84.30;;;;;;5106050;28;19908;-67
2022/10/31 04:41:16;;;;;;;;;;;27.20;83.00;;;;;;5105965;28;19915;-66
2022/10/31 04:43:43;;;;;;;;;;;27.00;83.50;;;;;;5105049;28;19908;-66
2022/10/31 04:46:09;;;;;;;;;;;26.90;84.20;;;;;;5105450;28;20061;-66
2022/10/31 04:48:36;;;;;;;;;;;26.80;84.80;;;;;;5104880;28;19915;-66
2022/10/31 04:51:03;;;;;;;;;;;26.60;85.00;;;;;;5105280;28;19912;-66
2022/10/31 04:53:30;;;;;;;;;;;26.60;85.60;;;;;;5104835;28;19914;-66
2022/10/31 04:55:58;;;;;;;;;;;26.50;85.60;;;;;;5105462;28;19912;-66
2022/10/31 04:58:25;;;;;;;;;;;26.60;85.90;;;;;;5105003;28;19903;-66
2022/10/31 05:00:53;;;;;;;;;;;26.70;85.90;;;;;;5086558;28;20004;-67
2022/10/31 05:03:19;;;;;;;;;;;26.90;86.20;;;;;;5105389;28;19920;-66
2022/10/31 05:05:46;;;;;;;;;;;26.90;85.30;;;;;;5103674;28;20291;-68
2022/10/31 05:08:12;;;;;;;;;;;26.90;85.60;;;;;;5104875;28;19974;-68
2022/10/31 05:10:39;;;;;;;;;;;26.90;85.90;;;;;;5104650;28;20249;-69
2022/10/31 05:13:06;;;;;;;;;;;26.90;86.10;;;;;;5105544;28;19916;-67
2022/10/31 05:15:32;;;;;;;;;;;26.90;85.90;;;;;;5103908;28;20034;-68
2022/10/31 05:17:59;;;;;;;;;;;26.90;85.70;;;;;;5105111;28;19908;-68
2022/10/31 05:20:27;;;;;;;;;;;27.10;85.90;;;;;;5086835;28;19908;-68
2022/10/31 05:22:55;;;;;;;;;;;27.20;85.90;;;;;;5086614;28;19908;-68
2022/10/31 05:25:22;;;;;;;;;;;27.10;85.90;;;;;;5105136;28;19914;-69
2022/10/31 05:27:50;;;;;;;;;;;27.10;85.90;;;;;;5103857;28;19939;-68
2022/10/31 05:30:19;;;;;;;;;;;27.00;86.40;;;;;;5105062;28;19993;-67
2022/10/31 05:32:47;;;;;;;;;;;26.90;86.40;;;;;;5103648;28;19949;-68
2022/10/31 05:35:16;;;;;;;;;;;26.90;86.50;;;;;;5103962;28;19915;-67
2022/10/31 05:37:42;;;;;;;;;;;27.10;86.70;;;;;;5103651;28;19911;-67
2022/10/31 05:40:10;;;;;;;;;;;27.90;85.10;;;;;;5104521;28;19991;-68
2022/10/31 05:42:40;;;;;;;;;;;28.80;82.20;;;;;;5103128;28;19908;-68
2022/10/31 05:45:08;;;;;;;;;;;29.30;81.40;;;;;;5103952;28;19923;-68
2022/10/31 05:47:35;;;;;;;;;;;29.50;80.60;;;;;;5103523;28;19953;-68
2022/10/31 05:50:01;;;;;;;;;;;29.30;81.00;;;;;;5103984;28;19974;-68
2022/10/31 05:52:28;;;;;;;;;;;29.90;79.60;;;;;;5104024;28;19907;-69
2022/10/31 05:54:54;;;;;;;;;;;30.10;78.20;;;;;;5103448;28;19908;-68
2022/10/31 05:57:21;;;;;;;;;;;30.40;79.40;;;;;;5104458;28;20035;-67
2022/10/31 05:59:48;;;;;;;;;;;31.40;78.50;;;;;;5102345;28;20312;-67
2022/10/31 06:02:14;;;;;;;;;;;32.90;73.40;;;;;;5103840;28;19907;-68
2022/10/31 06:04:41;;;;;;;;;;;34.00;70.30;;;;;;5102355;28;20405;-67
2022/10/31 06:07:07;;;;;;;;;;;34.80;68.80;;;;;;5102939;28;19952;-66
2022/10/31 06:09:34;;;;;;;;;;;35.20;67.90;;;;;;5103486;28;20380;-66
2022/10/31 06:12:00;;;;;;;;;;;35.10;67.10;;;;;;5103255;28;20037;-66
2022/10/31 06:14:27;;;;;;;;;;;34.40;68.00;;;;;;5103354;28;19907;-67
2022/10/31 06:16:57;;;;;;;;;;;33.70;69.20;;;;;;5102501;28;19915;-66
2022/10/31 06:19:24;;;;;;;;;;;33.00;70.10;;;;;;5096779;28;19912;-66
2022/10/31 06:21:50;;;;;;;;;;;31.90;71.50;;;;;;5082553;28;19956;-67
2022/10/31 06:24:17;;;;;;;;;;;31.10;72.90;;;;;;5083217;28;19908;-67
2022/10/31 06:26:43;;;;;;;;;;;30.30;74.30;;;;;;5082119;28;19974;-67
2022/10/31 06:29:10;;;;;;;;;;;29.60;75.60;;;;;;5083458;28;20073;-66
2022/10/31 06:31:37;;;;;;;;;;;29.20;76.50;;;;;;5082797;28;19912;-67
2022/10/31 06:34:03;;;;;;;;;;;28.80;77.70;;;;;;5082092;28;19924;-66
2022/10/31 06:36:30;;;;;;;;;;;28.50;78.70;;;;;;5082201;28;19916;-66
2022/10/31 06:38:57;;;;;;;;;;;28.30;79.50;;;;;;5098028;28;19922;-67
2022/10/31 06:41:23;;;;;;;;;;;28.20;79.70;;;;;;5103452;28;19907;-67
2022/10/31 06:43:50;;;;;;;;;;;27.90;80.80;;;;;;5102204;28;19916;-67
2022/10/31 06:46:16;;;;;;;;;;;27.70;81.30;;;;;;5100896;28;20011;-66
2022/10/31 06:48:43;;;;;;;;;;;27.60;81.90;;;;;;5099542;28;19915;-66
2022/10/31 06:51:10;;;;;;;;;;;27.40;82.50;;;;;;5100859;28;19912;-67
2022/10/31 06:53:36;;;;;;;;;;;27.30;82.80;;;;;;5101016;28;19951;-66
2022/10/31 06:56:03;;;;;;;;;;;27.20;83.30;;;;;;5099909;28;19969;-68
2022/10/31 06:58:30;;;;;;;;;;;27.10;83.50;;;;;;5100402;28;19912;-67
2022/10/31 07:00:58;;;;;;;;;;;27.00;83.80;;;;;;5100778;28;19959;-66
2022/10/31 07:03:25;;;;;;;;;;;27.00;84.10;;;;;;5101674;28;19919;-67
2022/10/31 07:05:52;;;;;;;;;;;26.90;84.30;;;;;;5101090;28;19998;-66
2022/10/31 07:08:18;;;;;;;;;;;26.90;84.60;;;;;;5100868;28;20416;-67
2022/10/31 07:10:51;;;;;;;;;;;26.80;84.50;;;;;;5104043;28;19996;-66
2022/10/31 07:13:17;;;;;;;;;;;26.80;84.60;;;;;;5108357;28;19946;-67
2022/10/31 07:15:44;;;;;;;;;;;26.80;84.40;;;;;;5108474;28;19915;-67
2022/10/31 07:18:12;;;;;;;;;;;26.70;84.50;;;;;;5108679;28;19923;-66
2022/10/31 07:20:38;;;;;;;;;;;26.80;84.60;;;;;;5109696;28;19930;-66
2022/10/31 07:23:05;;;;;;;;;;;26.70;84.70;;;;;;5108511;28;19919;-66
2022/10/31 07:25:32;;;;;;;;;;;26.70;84.70;;;;;;5109071;28;20358;-66
2022/10/31 07:27:58;;;;;;;;;;;26.70;85.70;;;;;;5099837;28;19924;-68
2022/10/31 07:30:25;;;;;;;;;;;26.60;84.90;;;;;;5088855;28;19923;-66
2022/10/31 07:32:52;;;;;;;;;;;26.60;85.00;;;;;;5070130;28;19908;-66
2022/10/31 07:35:20;;;;;;;;;;;26.60;85.20;;;;;;5089170;28;20326;-68
2022/10/31 07:37:47;;;;;;;;;;;26.60;85.10;;;;;;5089175;28;19961;-66
2022/10/31 07:40:14;;;;;;;;;;;26.60;85.30;;;;;;5101956;28;19951;-66
2022/10/31 07:42:42;;;;;;;;;;;26.60;85.40;;;;;;5109372;28;19912;-66
2022/10/31 07:45:10;;;;;;;;;;;26.60;85.50;;;;;;5088106;28;20489;-67
2022/10/31 07:47:43;;;;;;;;;;;26.50;85.70;;;;;;5092099;28;19912;-67
2022/10/31 07:50:11;;;;;;;;;;;26.50;85.60;;;;;;5087615;28;20261;-66
2022/10/31 07:52:37;;;;;;;;;;;26.60;85.70;;;;;;5088602;28;19908;-67
2022/10/31 07:55:05;;;;;;;;;;;26.50;85.80;;;;;;5087893;28;19963;-64
2022/10/31 07:57:31;;;;;;;;;;;26.50;86.10;;;;;;5088286;28;20053;-66
2022/10/31 07:59:58;;;;;;;;;;;26.50;86.20;;;;;;5088513;28;19961;-69
2022/10/31 08:02:25;;;;;;;;;;;26.50;86.20;;;;;;5088211;28;19908;-67
2022/10/31 08:04:52;;;;;;;;;;;26.50;86.40;;;;;;5088511;28;19970;-67
2022/10/31 08:07:18;;;;;;;;;;;26.50;86.20;;;;;;5088358;28;20392;-67
2022/10/31 08:09:45;;;;;;;;;;;26.50;86.30;;;;;;5088505;28;20644;-67
2022/10/31 08:12:12;;;;;;;;;;;26.50;86.30;;;;;;5088346;28;20417;-68
2022/10/31 08:14:39;;;;;;;;;;;26.50;86.30;;;;;;5103161;28;19911;-67
2022/10/31 08:17:05;;;;;;;;;;;26.50;86.40;;;;;;5090066;28;20372;-65
2022/10/31 08:19:32;;;;;;;;;;;26.50;86.60;;;;;;5107668;28;19908;-66
2022/10/31 08:21:59;;;;;;;;;;;26.50;86.90;;;;;;5106938;28;19914;-67
2022/10/31 08:24:25;;;;;;;;;;;26.50;87.00;;;;;;5105673;28;20007;-67
2022/10/31 08:26:52;;;;;;;;;;;26.40;87.10;;;;;;5105645;28;19908;-66
2022/10/31 08:29:18;;;;;;;;;;;26.40;87.30;;;;;;5084717;28;19928;-67
2022/10/31 08:31:45;;;;;;;;;;;26.30;87.40;;;;;;5085793;28;19931;-67
2022/10/31 08:34:12;;;;;;;;;;;26.40;87.70;;;;;;5085808;28;20422;-66
2022/10/31 08:36:38;;;;;;;;;;;26.30;87.50;;;;;;5086388;28;19923;-66
2022/10/31 08:39:05;;;;;;;;;;;26.30;87.70;;;;;;5085052;28;19974;-67
2022/10/31 08:41:31;;;;;;;;;;;26.30;87.80;;;;;;5087227;28;19927;-67
2022/10/31 08:43:58;;;;;;;;;;;26.30;87.90;;;;;;5103500;28;19914;-67
2022/10/31 08:46:25;;;;;;;;;;;26.30;88.00;;;;;;5085567;28;19950;-66
2022/10/31 08:48:51;;;;;;;;;;;26.30;88.00;;;;;;5088041;28;19916;-67
2022/10/31 08:51:18;;;;;;;;;;;26.30;88.10;;;;;;5096497;28;20022;-66
2022/10/31 08:53:45;;;;;;;;;;;26.30;88.10;;;;;;5085133;28;19908;-67
2022/10/31 08:56:11;;;;;;;;;;;26.20;88.20;;;;;;5084951;28;19919;-67
2022/10/31 08:58:38;;;;;;;;;;;26.20;88.40;;;;;;5066319;28;19911;-67
2022/10/31 09:01:04;;;;;;;;;;;26.20;88.50;;;;;;5084091;28;19912;-67
2022/10/31 09:03:31;;;;;;;;;;;26.10;88.40;;;;;;5083915;28;19920;-68
2022/10/31 09:05:59;;;;;;;;;;;26.10;88.80;;;;;;5090572;28;19992;-67
2022/10/31 09:08:26;;;;;;;;;;;26.10;88.60;;;;;;5074499;28;20356;-66
2022/10/31 09:10:56;;;;;;;;;;;26.10;89.00;;;;;;5089130;28;20423;-67
2022/10/31 09:13:24;;;;;;;;;;;26.00;89.10;;;;;;5103835;28;19908;-69
2022/10/31 09:15:51;;;;;;;;;;;26.00;89.10;;;;;;5104501;28;19907;-66
2022/10/31 09:18:19;;;;;;;;;;;26.00;89.20;;;;;;5086969;28;19985;-69
2022/10/31 09:20:46;;;;;;;;;;;26.00;89.60;;;;;;5084770;28;19908;-68
2022/10/31 09:23:17;;;;;;;;;;;26.00;89.80;;;;;;5083999;28;20288;-67
2022/10/31 09:25:44;;;;;;;;;;;25.90;90.00;;;;;;5082075;28;20677;-67
2022/10/31 09:28:12;;;;;;;;;;;25.90;90.50;;;;;;5097900;28;19920;-68
2022/10/31 09:30:39;;;;;;;;;;;25.70;92.00;;;;;;5102108;28;19926;-68
2022/10/31 09:33:12;;;;;;;;;;;25.50;92.80;;;;;;5104418;28;19908;-66
2022/10/31 09:35:39;;;;;;;;;;;25.20;93.30;;;;;;5082658;28;20614;-67
2022/10/31 09:38:10;;;;;;;;;;;24.90;93.90;;;;;;5096115;28;19957;-66
2022/10/31 09:40:37;;;;;;;;;;;24.80;94.50;;;;;;5088165;28;19943;-66
2022/10/31 09:43:21;;;;;;;;;;;24.60;94.60;;;;;;5085194;28;19920;-66
2022/10/31 09:45:54;;;;;;;;;;;24.50;94.90;;;;;;5085737;28;19942;-65
2022/10/31 09:48:23;;;;;;;;;;;24.50;94.70;;;;;;5101945;28;19919;-67
2022/10/31 09:50:55;;;;;;;;;;;24.50;94.60;;;;;;5104338;28;19915;-65
2022/10/31 09:53:30;;;;;;;;;;;24.50;94.70;;;;;;5096515;28;20004;-67
2022/10/31 09:55:58;;;;;;;;;;;24.50;95.10;;;;;;5099787;28;19911;-67
2022/10/31 09:58:26;;;;;;;;;;;24.50;95.50;;;;;;5102114;28;19908;-66
2022/10/31 10:00:54;;;;;;;;;;;24.40;95.40;;;;;;5083151;28;19912;-65
2022/10/31 10:03:33;;;;;;;;;;;24.30;95.80;;;;;;5081892;28;19920;-64
2022/10/31 10:06:15;;;;;;;;;;;24.30;96.30;;;;;;5088805;28;19912;-67
2022/10/31 10:08:41;;;;;;;;;;;24.10;96.00;;;;;;5103378;28;19912;-67
2022/10/31 10:11:11;;;;;;;;;;;24.10;96.00;;;;;;5103770;28;20002;-66
2022/10/31 10:13:53;;;;;;;;;;;24.10;96.20;;;;;;5084067;28;20543;-66
2022/10/31 10:16:33;;;;;;;;;;;24.20;95.90;;;;;;5090162;28;19915;-67
2022/10/31 10:19:08;;;;;;;;;;;24.20;95.90;;;;;;5087302;28;20394;-66
2022/10/31 10:21:44;;;;;;;;;;;24.20;96.00;;;;;;5080302;28;20306;-65
2022/10/31 10:24:14;;;;;;;;;;;24.20;95.80;;;;;;5064687;28;20330;-67
2022/10/31 10:26:43;;;;;;;;;;;24.20;96.10;;;;;;5082232;28;19916;-65
2022/10/31 10:29:21;;;;;;;;;;;24.20;96.20;;;;;;5083357;28;19912;-66
2022/10/31 10:31:49;;;;;;;;;;;24.20;96.30;;;;;;5084198;28;19939;-66
2022/10/31 10:34:39;;;;;;;;;;;24.10;96.50;;;;;;5104028;28;19908;-67
2022/10/31 10:37:13;;;;;;;;;;;24.10;96.50;;;;;;5094749;28;19915;-67
2022/10/31 10:39:42;;;;;;;;;;;24.20;96.80;;;;;;5101706;28;19908;-66
2022/10/31 10:47:44;;;;;;;;;;;24.10;97.80;;;;;;5081627;28;20415;-65
2022/10/31 10:50:27;;;;;;;;;;;24.10;99.10;;;;;;5084221;28;19974;-66
2022/10/31 10:53:00;;;;;;;;;;;24.00;99.90;;;;;;5092225;28;20360;-67
2022/10/31 10:55:55;;;;;;;;;;;24.00;99.90;;;;;;5100596;28;20276;-66
2022/10/31 10:58:22;;;;;;;;;;;23.80;99.90;;;;;;5083244;28;19939;-66
2022/10/31 11:00:49;;;;;;;;;;;23.70;99.90;;;;;;5081900;28;19919;-67
2022/10/31 11:03:17;;;;;;;;;;;23.60;99.90;;;;;;5083297;28;19966;-67
2022/10/31 11:05:49;;;;;;;;;;;23.40;99.90;;;;;;5087745;28;20261;-66
2022/10/31 11:08:25;;;;;;;;;;;23.40;99.90;;;;;;5087837;28;19966;-65
2022/10/31 11:11:05;;;;;;;;;;;23.20;99.90;;;;;;5088150;28;20350;-67
2022/10/31 11:13:33;;;;;;;;;;;23.10;99.90;;;;;;5092559;28;19912;-66
2022/10/31 11:16:04;;;;;;;;;;;23.10;99.90;;;;;;5086781;28;20637;-66
2022/10/31 11:18:32;;;;;;;;;;;23.00;99.90;;;;;;5081443;28;20019;-66
2022/10/31 11:21:00;;;;;;;;;;;23.00;99.90;;;;;;5088517;28;19918;-67
2022/10/31 11:23:28;;;;;;;;;;;22.90;99.90;;;;;;5101064;28;20335;-67
2022/10/31 11:26:04;;;;;;;;;;;22.90;99.90;;;;;;5101218;28;19908;-67
2022/10/31 11:28:35;;;;;;;;;;;23.00;99.90;;;;;;5101456;28;19943;-67
2022/10/31 11:31:06;;;;;;;;;;;22.90;99.90;;;;;;5090412;28;20372;-66
2022/10/31 11:33:38;;;;;;;;;;;23.00;99.90;;;;;;5099963;28;19915;-67
2022/10/31 11:36:16;;;;;;;;;;;23.00;99.90;;;;;;5097825;28;19930;-68
2022/10/31 11:38:43;;;;;;;;;;;23.00;99.90;;;;;;5101930;28;20283;-66
2022/10/31 11:41:13;;;;;;;;;;;23.00;99.90;;;;;;5101785;28;20284;-67
2022/10/31 11:43:45;;;;;;;;;;;23.00;99.90;;;;;;5082020;28;20365;-68
2022/10/31 11:46:15;;;;;;;;;;;23.10;99.90;;;;;;5082312;28;19954;-67
2022/10/31 11:48:47;;;;;;;;;;;23.00;99.90;;;;;;5082060;28;20276;-68
2022/10/31 11:51:20;;;;;;;;;;;23.00;99.90;;;;;;5082807;28;19908;-68
2022/10/31 11:53:54;;;;;;;;;;;23.00;99.90;;;;;;5080965;28;19923;-68
2022/10/31 11:56:20;;;;;;;;;;;22.90;99.90;;;;;;5081970;28;19908;-66
2022/10/31 11:59:04;;;;;;;;;;;22.90;99.90;;;;;;5083834;28;19912;-67
2022/10/31 12:01:32;;;;;;;;;;;22.90;99.90;;;;;;5086390;28;20288;-67
2022/10/31 12:04:01;;;;;;;;;;;22.80;99.90;;;;;;5067369;28;19930;-68
2022/10/31 12:06:30;;;;;;;;;;;22.80;99.90;;;;;;5086697;28;19911;-67
2022/10/31 12:08:57;;;;;;;;;;;22.70;99.90;;;;;;5085053;28;19970;-65
2022/10/31 12:11:30;;;;;;;;;;;22.60;99.90;;;;;;5086394;28;19912;-67
2022/10/31 12:14:05;;;;;;;;;;;22.60;99.90;;;;;;5084868;28;19908;-67
2022/10/31 12:16:54;;;;;;;;;;;22.60;99.90;;;;;;5086116;28;20417;-68
2022/10/31 12:19:42;;;;;;;;;;;22.50;99.90;;;;;;5085499;28;20372;-67
2022/10/31 12:22:14;;;;;;;;;;;22.50;99.90;;;;;;5084804;28;20606;-65
2022/10/31 12:24:46;;;;;;;;;;;22.40;99.90;;;;;;5085108;28;20022;-67
2022/10/31 12:27:15;;;;;;;;;;;22.40;99.90;;;;;;5084882;28;20459;-67
2022/10/31 12:29:49;;;;;;;;;;;22.30;99.90;;;;;;5084938;28;19916;-66
2022/10/31 12:32:16;;;;;;;;;;;22.20;99.90;;;;;;5085558;28;19912;-68
2022/10/31 12:35:08;;;;;;;;;;;22.20;99.90;;;;;;5085289;28;19969;-68
2022/10/31 12:37:52;;;;;;;;;;;22.10;99.90;;;;;;5061814;28;19912;-68
2022/10/31 12:40:30;;;;;;;;;;;22.00;99.90;;;;;;5085400;28;19908;-68
2022/10/31 12:43:03;;;;;;;;;;;21.90;99.90;;;;;;5083813;28;20010;-68
2022/10/31 12:45:36;;;;;;;;;;;21.90;99.90;;;;;;5085685;28;19908;-67
2022/10/31 12:48:05;;;;;;;;;;;21.80;99.90;;;;;;5085454;28;20357;-67
2022/10/31 12:50:39;;;;;;;;;;;21.70;99.90;;;;;;5085346;28;19916;-67
2022/10/31 12:53:06;;;;;;;;;;;21.80;99.90;;;;;;5084687;28;19935;-68
2022/10/31 12:55:39;;;;;;;;;;;21.70;99.90;;;;;;5085711;28;19912;-66
2022/10/31 12:58:09;;;;;;;;;;;21.70;99.90;;;;;;5104309;28;19966;-68
2022/10/31 13:00:38;;;;;;;;;;;21.70;99.90;;;;;;5105209;28;19919;-67
2022/10/31 13:03:20;;;;;;;;;;;21.80;99.90;;;;;;5102868;28;19920;-66
2022/10/31 13:05:48;;;;;;;;;;;21.80;99.90;;;;;;5105277;28;20493;-67
2022/10/31 13:08:20;;;;;;;;;;;21.80;99.90;;;;;;5103586;28;19912;-67
2022/10/31 13:10:49;;;;;;;;;;;21.80;99.90;;;;;;5104676;28;19950;-67
2022/10/31 13:13:21;;;;;;;;;;;21.80;99.90;;;;;;5084117;28;19962;-67
2022/10/31 13:15:51;;;;;;;;;;;21.80;99.90;;;;;;5065986;28;20277;-66
2022/10/31 13:18:44;;;;;;;;;;;21.90;99.90;;;;;;5082979;28;19962;-66
2022/10/31 13:21:13;;;;;;;;;;;21.90;99.90;;;;;;5080522;28;19912;-67
2022/10/31 13:23:40;;;;;;;;;;;21.80;99.90;;;;;;5084715;28;19908;-67
2022/10/31 13:26:12;;;;;;;;;;;21.90;99.90;;;;;;5083038;28;20006;-67
2022/10/31 13:28:52;;;;;;;;;;;21.90;99.90;;;;;;5084872;28;20044;-66
2022/10/31 13:31:19;;;;;;;;;;;22.00;99.90;;;;;;5102815;28;19962;-67
2022/10/31 13:33:48;;;;;;;;;;;22.00;99.90;;;;;;5104913;28;19908;-67
2022/10/31 13:36:47;;;;;;;;;;;22.00;99.90;;;;;;5103614;28;19908;-67
2022/10/31 13:39:17;;;;;;;;;;;22.00;99.90;;;;;;5050840;28;19958;-67
2022/10/31 13:41:47;;;;;;;;;;;22.00;99.90;;;;;;5084440;28;19912;-66
2022/10/31 13:44:24;;;;;;;;;;;22.10;99.90;;;;;;5082895;28;19939;-65
2022/10/31 13:46:52;;;;;;;;;;;22.10;99.90;;;;;;5065631;28;20268;-66
2022/10/31 13:49:30;;;;;;;;;;;22.20;99.90;;;;;;5083042;28;19916;-66
2022/10/31 13:52:14;;;;;;;;;;;22.30;99.90;;;;;;5084178;28;19912;-65
2022/10/31 13:54:45;;;;;;;;;;;22.40;99.90;;;;;;5084275;28;19931;-68
2022/10/31 13:57:32;;;;;;;;;;;22.40;99.90;;;;;;5082188;28;19908;-67
2022/10/31 14:00:01;;;;;;;;;;;22.50;99.90;;;;;;5083892;28;19908;-67
2022/10/31 14:02:32;;;;;;;;;;;22.50;99.90;;;;;;5083221;28;20011;-67
2022/10/31 14:05:18;;;;;;;;;;;22.60;99.90;;;;;;5083620;28;19920;-67
2022/10/31 14:07:45;;;;;;;;;;;22.70;99.90;;;;;;5083292;28;20339;-67
2022/10/31 14:10:25;;;;;;;;;;;22.70;99.90;;;;;;5082086;28;19927;-67
2022/10/31 14:12:52;;;;;;;;;;;22.70;99.90;;;;;;5083526;28;19954;-67
2022/10/31 14:15:20;;;;;;;;;;;22.90;99.90;;;;;;5082237;28;19919;-68
2022/10/31 14:17:57;;;;;;;;;;;22.90;99.90;;;;;;5084364;28;19908;-67
2022/10/31 14:20:30;;;;;;;;;;;22.90;99.90;;;;;;5081425;28;19931;-68
2022/10/31 14:22:56;;;;;;;;;;;22.90;99.90;;;;;;5082901;28;19908;-67
2022/10/31 14:25:26;;;;;;;;;;;23.00;99.90;;;;;;5082005;28;19920;-66
2022/10/31 14:27:53;;;;;;;;;;;23.00;99.90;;;;;;5083718;28;19909;-68
2022/10/31 14:30:22;;;;;;;;;;;23.00;99.90;;;;;;5082033;28;19923;-67
2022/10/31 14:32:53;;;;;;;;;;;23.00;99.90;;;;;;5065450;28;19908;-67
2022/10/31 14:35:20;;;;;;;;;;;23.00;99.90;;;;;;5063858;28;19916;-67
2022/10/31 14:37:47;;;;;;;;;;;23.00;99.90;;;;;;5083259;28;19947;-68